Aviation Digital Data Service (ADDS)

Output produced by METARs form (1851 UTC 26 March 2017)
found at http://aviationweather.gov/adds/metars/
 
KBWI 261731Z 2618/2724 08014KT P6SM OVC009 
     FM262200 09010KT 4SM BR OVC008 
     FM270000 09010KT 2SM -DZRA BR OVC003 
     FM270500 12007KT 1SM -DZRA BR OVC008 
     FM270900 16006KT 2SM BR OVC003 WS020/21035KT 
     FM271100 18007KT 4SM BR OVC008 
     FM271500 21008KT P6SM OVC008 
     FM271900 22007KT P6SM BKN050